createdAt,value
2023-02-24T00:01:59.827Z,60.20
2023-02-24T00:04:29.758Z,60.20
2023-02-24T00:06:56.686Z,60.10
2023-02-24T00:09:26.220Z,60.00
2023-02-24T00:12:01.338Z,60.00
2023-02-24T00:14:31.390Z,60.00
2023-02-24T00:16:58.750Z,60.00
2023-02-24T00:19:29.101Z,60.00
2023-02-24T00:21:55.932Z,60.00
2023-02-24T00:24:22.849Z,59.90
2023-02-24T00:27:01.986Z,59.90
2023-02-24T00:29:30.014Z,59.80
2023-02-24T00:32:01.513Z,59.80
2023-02-24T00:34:34.000Z,59.80
2023-02-24T00:37:01.309Z,59.80
2023-02-24T00:39:30.344Z,59.70
2023-02-24T00:42:06.767Z,59.80
2023-02-24T00:44:41.262Z,59.70
2023-02-24T00:47:10.356Z,59.60
2023-02-24T00:49:44.434Z,59.70
2023-02-24T00:52:17.024Z,59.70
2023-02-24T00:54:45.880Z,59.70
2023-02-24T00:57:14.328Z,59.70
2023-02-24T00:59:41.203Z,59.60
2023-02-24T01:02:08.145Z,60.20
2023-02-24T01:04:37.687Z,59.60
2023-02-24T01:07:11.144Z,59.70
2023-02-24T01:09:39.815Z,59.70
2023-02-24T01:12:38.266Z,59.80
2023-02-24T01:15:08.929Z,59.70
2023-02-24T01:17:37.666Z,59.70
2023-02-24T01:20:16.320Z,59.80
2023-02-24T01:22:49.617Z,59.80
2023-02-24T01:25:17.680Z,59.90
2023-02-24T01:27:44.844Z,59.80
2023-02-24T01:30:18.738Z,59.80
2023-02-24T01:32:47.316Z,59.80
2023-02-24T01:35:14.617Z,59.80
2023-02-24T01:37:41.803Z,59.80
2023-02-24T01:40:17.949Z,59.80
2023-02-24T01:42:47.483Z,59.70
2023-02-24T01:45:19.173Z,59.60
2023-02-24T01:47:47.504Z,59.60
2023-02-24T01:50:17.455Z,59.60
2023-02-24T01:52:46.844Z,59.60
2023-02-24T01:55:24.483Z,59.70
2023-02-24T01:57:53.728Z,59.70
2023-02-24T02:00:36.867Z,59.50
2023-02-24T02:03:19.219Z,59.50
2023-02-24T02:05:49.790Z,59.60
2023-02-24T02:08:18.179Z,59.50
2023-02-24T02:10:45.293Z,59.50
2023-02-24T02:13:20.437Z,59.50
2023-02-24T02:16:05.581Z,60.20
2023-02-24T02:18:56.242Z,59.40
2023-02-24T02:21:44.906Z,59.40
2023-02-24T02:24:27.452Z,59.40
2023-02-24T02:27:13.113Z,59.20
2023-02-24T02:30:13.774Z,59.10
2023-02-24T02:32:52.239Z,59.00
2023-02-24T02:35:26.421Z,58.90
2023-02-24T02:38:03.162Z,58.90
2023-02-24T02:40:39.383Z,58.90
2023-02-24T02:43:30.765Z,59.10
2023-02-24T02:46:06.747Z,59.20
2023-02-24T02:48:48.643Z,59.20
2023-02-24T02:51:24.770Z,59.20
2023-02-24T02:54:02.079Z,59.20
2023-02-24T02:56:33.890Z,59.20
2023-02-24T02:59:01.923Z,59.20
2023-02-24T03:01:33.809Z,59.20
2023-02-24T03:04:06.385Z,59.10
2023-02-24T03:06:47.737Z,59.10
2023-02-24T03:09:20.527Z,59.10
2023-02-24T03:11:53.948Z,59.00
2023-02-24T03:14:26.883Z,59.10
2023-02-24T03:16:56.784Z,59.00
2023-02-24T03:19:32.163Z,59.00
2023-02-24T03:22:06.901Z,59.00
2023-02-24T03:24:38.973Z,59.00
2023-02-24T03:27:27.105Z,58.90
2023-02-24T03:29:59.994Z,58.90
2023-02-24T03:32:34.950Z,58.90
2023-02-24T03:35:17.276Z,58.80
2023-02-24T03:37:47.389Z,58.70
2023-02-24T03:40:15.705Z,58.70
2023-02-24T03:42:58.972Z,58.90
2023-02-24T03:45:28.432Z,58.80
2023-02-24T03:47:56.137Z,58.80
2023-02-24T03:50:23.386Z,58.60
2023-02-24T03:53:02.706Z,58.40
2023-02-24T03:56:00.478Z,58.40
2023-02-24T03:58:41.978Z,58.30
2023-02-24T04:01:25.455Z,58.20
2023-02-24T04:04:04.053Z,58.10
2023-02-24T04:07:13.506Z,58.10
2023-02-24T04:10:02.588Z,58.20
2023-02-24T04:12:49.623Z,58.20
2023-02-24T04:15:29.711Z,58.20
2023-02-24T04:18:01.216Z,58.10
2023-02-24T04:20:35.650Z,58.10
2023-02-24T04:23:12.734Z,58.00
2023-02-24T04:25:43.214Z,58.00
2023-02-24T04:28:12.023Z,58.00
2023-02-24T04:30:48.494Z,58.00
2023-02-24T04:33:15.826Z,57.90
2023-02-24T04:35:45.906Z,57.80
2023-02-24T04:38:12.837Z,57.80
2023-02-24T04:40:40.900Z,57.70
2023-02-24T04:43:08.255Z,57.60
2023-02-24T04:45:36.253Z,57.60
2023-02-24T04:48:03.551Z,57.50
2023-02-24T04:50:33.914Z,57.60
2023-02-24T04:53:27.064Z,57.40
2023-02-24T04:55:54.036Z,57.40
2023-02-24T04:58:23.256Z,57.10
2023-02-24T05:00:55.727Z,57.10
2023-02-24T05:03:27.916Z,57.00
2023-02-24T05:05:58.105Z,57.00
2023-02-24T05:08:27.300Z,57.20
2023-02-24T05:10:54.640Z,57.30
2023-02-24T05:13:32.311Z,57.20
2023-02-24T05:16:05.853Z,57.40
2023-02-24T05:18:37.229Z,57.40
2023-02-24T05:21:35.278Z,57.30
2023-02-24T05:24:11.216Z,57.30
2023-02-24T05:26:41.647Z,57.10
2023-02-24T05:29:09.028Z,57.20
2023-02-24T05:31:37.023Z,57.20
2023-02-24T05:34:06.676Z,57.20
2023-02-24T05:36:37.544Z,57.10
2023-02-24T05:39:12.268Z,57.10
2023-02-24T05:41:42.279Z,57.20
2023-02-24T05:44:13.361Z,57.20
2023-02-24T05:46:42.143Z,57.10
2023-02-24T05:49:15.646Z,57.10
2023-02-24T05:51:54.555Z,57.10
2023-02-24T05:54:30.797Z,57.10
2023-02-24T05:57:12.402Z,57.20
2023-02-24T05:59:43.128Z,57.20
2023-02-24T06:02:12.951Z,57.20
2023-02-24T06:04:53.994Z,57.10
2023-02-24T06:07:27.361Z,57.10
2023-02-24T06:09:57.323Z,57.10
2023-02-24T06:12:33.737Z,57.00
2023-02-24T06:15:01.702Z,57.10
2023-02-24T06:17:28.732Z,57.10
2023-02-24T06:19:55.494Z,57.10
2023-02-24T06:22:24.418Z,56.90
2023-02-24T06:24:54.142Z,56.80
2023-02-24T06:27:21.824Z,56.80
2023-02-24T06:29:53.942Z,56.70
2023-02-24T06:32:24.146Z,56.70
2023-02-24T06:34:52.044Z,56.60
2023-02-24T06:37:19.258Z,56.50
2023-02-24T06:39:46.547Z,56.60
2023-02-24T06:42:13.868Z,56.50
2023-02-24T06:44:41.545Z,56.40
2023-02-24T06:47:11.399Z,56.30
2023-02-24T06:49:38.158Z,56.30
2023-02-24T06:52:05.909Z,56.40
2023-02-24T06:54:35.805Z,56.30
2023-02-24T06:57:04.402Z,56.20
2023-02-24T06:59:32.179Z,56.20
2023-02-24T07:02:01.748Z,56.30
2023-02-24T07:04:29.166Z,56.10
2023-02-24T07:07:03.069Z,56.10
2023-02-24T07:09:32.064Z,56.00
2023-02-24T07:12:02.514Z,55.80
2023-02-24T07:14:33.131Z,55.90
2023-02-24T07:17:00.481Z,55.80
2023-02-24T07:19:32.501Z,55.80
2023-02-24T07:22:03.131Z,56.50
2023-02-24T07:24:36.609Z,55.80
2023-02-24T07:27:09.506Z,55.80
2023-02-24T07:29:37.909Z,55.50
2023-02-24T07:32:08.543Z,55.40
2023-02-24T07:34:39.670Z,55.60
2023-02-24T07:37:08.354Z,55.70
2023-02-24T07:39:39.711Z,55.70
2023-02-24T07:42:09.881Z,55.90
2023-02-24T07:44:46.232Z,55.90
2023-02-24T07:47:13.060Z,55.80
2023-02-24T07:49:40.823Z,55.90
2023-02-24T07:52:08.209Z,55.80
2023-02-24T07:54:35.278Z,55.90
2023-02-24T07:57:02.059Z,56.10
2023-02-24T07:59:32.275Z,56.10
2023-02-24T08:02:00.484Z,56.00
2023-02-24T08:04:29.932Z,55.90
2023-02-24T08:06:58.751Z,55.80
2023-02-24T08:09:46.463Z,55.90
2023-02-24T08:12:23.061Z,56.00
2023-02-24T08:14:52.340Z,56.20
2023-02-24T08:17:23.133Z,56.30
2023-02-24T08:20:09.309Z,56.40
2023-02-24T08:22:37.356Z,56.60
2023-02-24T08:25:07.584Z,56.60
2023-02-24T08:27:39.007Z,56.60
2023-02-24T08:30:07.807Z,56.70
2023-02-24T08:32:43.777Z,56.80
2023-02-24T08:35:16.103Z,56.80
2023-02-24T08:37:48.556Z,57.50
2023-02-24T08:40:37.586Z,58.30
2023-02-24T08:43:30.592Z,58.90
2023-02-24T08:46:01.028Z,59.80
2023-02-24T08:48:37.433Z,60.20
2023-02-24T08:51:15.889Z,60.60
2023-02-24T08:53:44.518Z,60.70
2023-02-24T08:56:13.456Z,60.50
2023-02-24T08:58:47.147Z,60.20
2023-02-24T09:01:34.701Z,60.40
2023-02-24T09:04:08.190Z,60.60
2023-02-24T09:06:38.776Z,60.70
2023-02-24T09:09:18.124Z,60.90
2023-02-24T09:11:55.669Z,60.70
2023-02-24T09:14:28.513Z,61.00
2023-02-24T09:17:05.472Z,60.90
2023-02-24T09:19:41.143Z,60.80
2023-02-24T09:22:21.492Z,60.60
2023-02-24T09:24:51.036Z,60.70
2023-02-24T09:27:17.959Z,60.90
2023-02-24T09:29:50.393Z,60.80
2023-02-24T09:32:17.262Z,61.40
2023-02-24T09:34:44.856Z,60.50
2023-02-24T09:37:25.393Z,60.60
2023-02-24T09:39:55.982Z,60.40
2023-02-24T09:42:46.173Z,60.20
2023-02-24T09:45:32.891Z,60.60
2023-02-24T09:48:16.703Z,60.50
2023-02-24T09:51:02.066Z,60.10
2023-02-24T09:53:41.274Z,60.00
2023-02-24T09:56:42.246Z,60.30
2023-02-24T09:59:38.452Z,60.70
2023-02-24T10:02:39.319Z,61.10
2023-02-24T10:05:22.097Z,61.70
2023-02-24T10:07:53.072Z,61.70
2023-02-24T10:10:28.629Z,62.70
2023-02-24T10:13:13.646Z,62.40
2023-02-24T10:15:58.602Z,62.60
2023-02-24T10:18:48.372Z,62.90
2023-02-24T10:22:00.211Z,63.00
2023-02-24T10:24:47.290Z,63.40
2023-02-24T10:27:17.904Z,63.80
2023-02-24T10:29:55.463Z,64.10
2023-02-24T10:32:43.652Z,64.50
2023-02-24T10:35:16.722Z,65.60
2023-02-24T10:37:44.441Z,65.20
2023-02-24T10:40:17.400Z,65.30
2023-02-24T10:42:48.746Z,65.70
2023-02-24T10:45:26.816Z,65.90
2023-02-24T10:47:58.757Z,66.00
2023-02-24T10:50:34.914Z,66.70
2023-02-24T10:53:28.577Z,67.90
2023-02-24T10:56:17.012Z,68.80
2023-02-24T10:58:44.960Z,69.20
2023-02-24T11:01:21.132Z,69.70
2023-02-24T11:04:13.037Z,70.00
2023-02-24T11:06:39.763Z,70.30
2023-02-24T11:09:29.862Z,70.50
2023-02-24T11:12:16.718Z,70.60
2023-02-24T11:15:17.039Z,71.30
2023-02-24T11:17:59.245Z,71.60
2023-02-24T11:20:39.174Z,72.10
2023-02-24T11:23:27.315Z,72.30
2023-02-24T11:26:00.732Z,72.50
2023-02-24T11:28:49.321Z,72.50
2023-02-24T11:31:41.376Z,72.70
2023-02-24T11:34:20.705Z,72.50
2023-02-24T11:36:57.360Z,72.90
2023-02-24T11:39:39.156Z,72.60
2023-02-24T11:42:12.705Z,72.50
2023-02-24T11:45:03.983Z,72.90
2023-02-24T11:47:41.171Z,73.60
2023-02-24T11:50:32.115Z,73.80
2023-02-24T11:53:02.418Z,73.50
2023-02-24T11:55:42.393Z,73.50
2023-02-24T11:58:18.323Z,73.70
2023-02-24T12:00:55.418Z,73.70
2023-02-24T12:03:45.419Z,73.40
2023-02-24T12:06:41.305Z,74.20
2023-02-24T12:09:15.508Z,74.90
2023-02-24T12:11:52.318Z,74.40
2023-02-24T12:14:37.993Z,74.40
2023-02-24T12:17:27.880Z,74.20
2023-02-24T12:20:07.167Z,75.00
2023-02-24T12:22:46.671Z,74.50
2023-02-24T12:25:14.943Z,74.00
2023-02-24T12:28:13.813Z,71.70
2023-02-24T12:31:29.250Z,70.70
2023-02-24T12:34:11.764Z,70.70
2023-02-24T12:36:55.934Z,69.90
2023-02-24T12:39:31.695Z,71.10
2023-02-24T12:42:03.711Z,71.50
2023-02-24T12:44:56.899Z,71.70
2023-02-24T12:48:06.749Z,72.80
2023-02-24T12:50:57.726Z,73.00
2023-02-24T12:53:58.320Z,73.10
2023-02-24T12:56:31.985Z,71.70
2023-02-24T12:59:05.299Z,71.30
2023-02-24T13:01:47.999Z,72.00
2023-02-24T13:04:26.920Z,72.40
2023-02-24T13:07:29.065Z,73.70
2023-02-24T13:10:19.680Z,73.00
2023-02-24T13:13:05.246Z,70.20
2023-02-24T13:15:34.466Z,69.50
2023-02-24T13:18:01.305Z,68.20
2023-02-24T13:20:37.888Z,70.00
2023-02-24T13:23:21.390Z,70.70
2023-02-24T13:25:53.507Z,70.70
2023-02-24T13:28:40.573Z,70.10
2023-02-24T13:31:13.132Z,70.60
2023-02-24T13:33:42.438Z,70.20
2023-02-24T13:36:45.606Z,71.30
2023-02-24T13:39:32.314Z,69.70
2023-02-24T13:42:29.032Z,69.20
2023-02-24T13:45:01.567Z,68.10
2023-02-24T13:47:41.305Z,67.50
2023-02-24T13:50:31.332Z,65.20
2023-02-24T13:53:57.708Z,63.60
2023-02-24T13:56:29.869Z,67.20
2023-02-24T13:59:05.151Z,68.10
2023-02-24T14:01:44.686Z,69.70
2023-02-24T14:04:15.253Z,70.60
2023-02-24T14:06:51.856Z,71.00
2023-02-24T14:09:47.427Z,71.60
2023-02-24T14:12:19.357Z,71.00
2023-02-24T14:14:47.618Z,70.50
2023-02-24T14:17:20.385Z,69.80
2023-02-24T14:19:47.301Z,70.00
2023-02-24T14:22:20.387Z,71.00
2023-02-24T14:24:47.390Z,70.30
2023-02-24T14:27:26.418Z,71.50
2023-02-24T14:29:53.706Z,71.50
2023-02-24T14:32:25.653Z,71.60
2023-02-24T14:34:54.022Z,70.50
2023-02-24T14:37:30.509Z,70.90
2023-02-24T14:39:59.873Z,70.00
2023-02-24T14:42:28.014Z,69.50
2023-02-24T14:44:59.214Z,69.80
2023-02-24T14:47:28.647Z,69.50
2023-02-24T14:50:02.382Z,69.80
2023-02-24T14:52:41.944Z,69.80
2023-02-24T14:55:19.850Z,70.20
2023-02-24T14:57:58.554Z,70.00
2023-02-24T15:00:30.769Z,70.10
2023-02-24T15:03:23.917Z,69.70
2023-02-24T15:05:54.657Z,69.10
2023-02-24T15:08:31.460Z,69.40
2023-02-24T15:10:58.614Z,68.60
2023-02-24T15:13:50.989Z,69.00
2023-02-24T15:16:32.127Z,70.20
2023-02-24T15:19:01.552Z,70.50
2023-02-24T15:21:38.788Z,71.10
2023-02-24T15:24:41.066Z,70.80
2023-02-24T15:27:13.529Z,69.40
2023-02-24T15:29:41.437Z,68.80
2023-02-24T15:32:22.003Z,69.80
2023-02-24T15:34:49.290Z,70.10
2023-02-24T15:37:24.095Z,69.00
2023-02-24T15:39:57.349Z,71.00
2023-02-24T15:42:28.609Z,70.70
2023-02-24T15:45:01.123Z,71.10
2023-02-24T15:47:32.516Z,71.10
2023-02-24T15:49:59.442Z,69.40
2023-02-24T15:52:28.657Z,70.40
2023-02-24T15:54:57.850Z,69.60
2023-02-24T15:57:25.491Z,69.50
2023-02-24T15:59:53.380Z,70.30
2023-02-24T16:02:23.027Z,70.00
2023-02-24T16:04:51.598Z,70.00
2023-02-24T16:07:23.541Z,70.30
2023-02-24T16:09:53.350Z,70.20
2023-02-24T16:12:28.733Z,70.90
2023-02-24T16:15:05.857Z,68.50
2023-02-24T16:17:41.965Z,69.00
2023-02-24T16:20:27.142Z,68.50
2023-02-24T16:22:56.157Z,68.80
2023-02-24T16:25:23.618Z,68.70
2023-02-24T16:27:50.708Z,68.30
2023-02-24T16:30:22.418Z,68.30
2023-02-24T16:32:50.728Z,68.70
2023-02-24T16:35:18.328Z,68.40
2023-02-24T16:37:47.161Z,68.10
2023-02-24T16:40:27.827Z,67.20
2023-02-24T16:42:54.629Z,67.90
2023-02-24T16:45:22.234Z,68.20
2023-02-24T16:47:55.976Z,67.60
2023-02-24T16:50:28.920Z,67.10
2023-02-24T16:52:56.001Z,65.90
2023-02-24T16:55:23.043Z,66.50
2023-02-24T16:57:49.782Z,66.30
2023-02-24T17:00:17.593Z,66.20
2023-02-24T17:02:45.354Z,66.60
2023-02-24T17:05:22.887Z,67.00
2023-02-24T17:07:51.880Z,66.10
2023-02-24T17:10:19.594Z,66.00
2023-02-24T17:12:46.318Z,67.00
2023-02-24T17:15:18.880Z,67.10
2023-02-24T17:17:45.686Z,66.70
2023-02-24T17:20:17.277Z,66.20
2023-02-24T17:22:45.322Z,65.20
2023-02-24T17:25:21.638Z,65.70
2023-02-24T17:27:48.578Z,65.40
2023-02-24T17:30:19.773Z,65.50
2023-02-24T17:32:46.724Z,65.70
2023-02-24T17:35:13.525Z,66.40
2023-02-24T17:37:40.323Z,66.40
2023-02-24T17:40:07.758Z,66.70
2023-02-24T17:42:34.586Z,66.80
2023-02-24T17:45:01.435Z,66.30
2023-02-24T17:47:28.414Z,66.20
2023-02-24T17:49:55.460Z,65.30
2023-02-24T17:52:23.494Z,66.40
2023-02-24T17:54:50.288Z,66.20
2023-02-24T17:57:17.269Z,66.20
2023-02-24T17:59:45.887Z,66.70
2023-02-24T18:02:14.789Z,66.00
2023-02-24T18:04:41.860Z,64.90
2023-02-24T18:07:10.049Z,64.70
2023-02-24T18:09:36.882Z,64.60
2023-02-24T18:12:04.370Z,64.10
2023-02-24T18:14:31.535Z,63.60
2023-02-24T18:16:58.272Z,63.10
2023-02-24T18:19:25.116Z,63.40
2023-02-24T18:21:51.949Z,64.10
2023-02-24T18:24:18.786Z,64.20
2023-02-24T18:26:45.591Z,63.60
2023-02-24T18:29:12.377Z,63.70
2023-02-24T18:31:39.456Z,63.80
2023-02-24T18:34:06.414Z,63.50
2023-02-24T18:36:33.375Z,63.50
2023-02-24T18:39:00.271Z,63.40
2023-02-24T18:41:27.499Z,63.60
2023-02-24T18:43:56.931Z,63.50
2023-02-24T18:46:26.041Z,63.80
2023-02-24T18:48:53.206Z,64.10
2023-02-24T18:51:22.104Z,64.20
2023-02-24T18:53:52.170Z,64.10
2023-02-24T18:56:22.602Z,63.20
2023-02-24T18:58:52.398Z,63.60
2023-02-24T19:01:23.917Z,63.00
2023-02-24T19:03:52.339Z,63.40
2023-02-24T19:06:21.073Z,62.70
2023-02-24T19:08:50.186Z,63.00
2023-02-24T19:11:19.759Z,63.40
2023-02-24T19:13:50.264Z,63.30
2023-02-24T19:16:17.772Z,63.40
2023-02-24T19:18:45.106Z,63.50
2023-02-24T19:21:11.940Z,63.40
2023-02-24T19:23:38.919Z,63.60
2023-02-24T19:26:07.458Z,63.70
2023-02-24T19:28:34.285Z,63.70
2023-02-24T19:31:01.157Z,63.70
2023-02-24T19:33:27.910Z,63.80
2023-02-24T19:35:59.432Z,63.90
2023-02-24T19:38:26.465Z,63.70
2023-02-24T19:40:53.264Z,63.40
2023-02-24T19:43:20.074Z,63.20
2023-02-24T19:45:47.008Z,63.00
2023-02-24T19:48:13.805Z,62.90
2023-02-24T19:50:41.458Z,62.80
2023-02-24T19:53:08.436Z,62.60
2023-02-24T19:55:35.286Z,62.40
2023-02-24T19:58:02.145Z,61.80
2023-02-24T20:00:29.159Z,62.00
2023-02-24T20:02:56.119Z,61.90
2023-02-24T20:05:24.802Z,62.00
2023-02-24T20:07:51.630Z,61.90
2023-02-24T20:10:18.821Z,61.50
2023-02-24T20:12:45.616Z,61.80
2023-02-24T20:15:12.625Z,61.70
2023-02-24T20:17:40.373Z,61.30
2023-02-24T20:20:07.677Z,60.50
2023-02-24T20:22:34.373Z,60.60
2023-02-24T20:25:01.479Z,60.70
2023-02-24T20:27:28.307Z,60.60
2023-02-24T20:29:56.354Z,60.50
2023-02-24T20:32:23.773Z,60.60
2023-02-24T20:34:50.889Z,60.80
2023-02-24T20:37:17.803Z,60.80
2023-02-24T20:39:44.870Z,60.80
2023-02-24T20:42:12.338Z,60.60
2023-02-24T20:44:39.160Z,59.50
2023-02-24T20:47:05.926Z,59.90
2023-02-24T20:49:33.011Z,60.20
2023-02-24T20:51:59.827Z,59.50
2023-02-24T20:54:26.670Z,59.90
2023-02-24T20:56:53.459Z,60.00
2023-02-24T20:59:24.279Z,59.60
2023-02-24T21:01:51.209Z,59.60
2023-02-24T21:04:20.892Z,59.30
2023-02-24T21:06:48.348Z,59.80
2023-02-24T21:09:15.882Z,60.00
2023-02-24T21:11:42.759Z,60.00
2023-02-24T21:14:17.148Z,59.90
2023-02-24T21:16:46.057Z,59.80
2023-02-24T21:19:13.131Z,59.40
2023-02-24T21:21:39.880Z,59.50
2023-02-24T21:24:07.119Z,59.20
2023-02-24T21:26:33.890Z,59.10
2023-02-24T21:29:00.605Z,58.90
2023-02-24T21:31:27.848Z,59.10
2023-02-24T21:33:55.354Z,59.50
2023-02-24T21:36:25.606Z,59.40
2023-02-24T21:38:53.169Z,59.60
2023-02-24T21:41:20.514Z,60.20
2023-02-24T21:43:47.738Z,60.50
2023-02-24T21:46:15.964Z,60.30
2023-02-24T21:48:43.092Z,60.20
2023-02-24T21:51:13.735Z,60.20
2023-02-24T21:53:43.728Z,60.10
2023-02-24T21:56:21.384Z,60.30
2023-02-24T21:58:51.129Z,60.30
2023-02-24T22:01:39.567Z,60.30
2023-02-24T22:04:12.320Z,60.10
2023-02-24T22:06:40.629Z,59.80
2023-02-24T22:09:10.267Z,59.70
2023-02-24T22:11:39.563Z,60.20
2023-02-24T22:14:11.093Z,60.30
2023-02-24T22:16:38.805Z,60.50
2023-02-24T22:19:06.023Z,60.50
2023-02-24T22:21:33.166Z,60.60
2023-02-24T22:24:02.486Z,60.50
2023-02-24T22:26:30.623Z,60.80
2023-02-24T22:28:58.047Z,61.50
2023-02-24T22:31:28.519Z,60.70
2023-02-24T22:33:55.372Z,61.40
2023-02-24T22:36:28.412Z,60.50
2023-02-24T22:38:56.980Z,60.30
2023-02-24T22:41:27.530Z,60.40
2023-02-24T22:43:54.648Z,60.30
2023-02-24T22:46:27.095Z,60.30
2023-02-24T22:48:55.004Z,60.40
2023-02-24T22:51:22.466Z,60.50
2023-02-24T22:53:49.904Z,60.60
2023-02-24T22:56:20.057Z,60.70
2023-02-24T22:58:47.478Z,60.80
2023-02-24T23:01:17.400Z,60.90
2023-02-24T23:03:45.985Z,61.00
2023-02-24T23:06:19.416Z,60.90
2023-02-24T23:08:48.442Z,61.10
2023-02-24T23:11:19.463Z,61.00
2023-02-24T23:13:48.593Z,60.90
2023-02-24T23:16:21.967Z,60.90
2023-02-24T23:18:50.775Z,61.00
2023-02-24T23:21:33.718Z,61.00
2023-02-24T23:24:00.572Z,60.90
2023-02-24T23:26:35.694Z,60.70
2023-02-24T23:29:03.001Z,60.80
2023-02-24T23:31:29.874Z,60.70
2023-02-24T23:33:56.644Z,60.80
2023-02-24T23:36:24.661Z,60.60
2023-02-24T23:38:52.715Z,60.60
2023-02-24T23:41:19.574Z,60.40
2023-02-24T23:43:46.348Z,60.30
2023-02-24T23:46:13.711Z,60.40
2023-02-24T23:48:40.573Z,60.40
2023-02-24T23:51:12.321Z,60.60
2023-02-24T23:53:44.868Z,60.70
2023-02-24T23:56:22.983Z,60.60
2023-02-24T23:58:55.224Z,60.60
